Wetterdaten: Mittwoch, 22.04.2015
Datum Zeit Temp. A. Feuchte A. Luftdruck Regen Wind Richtung Richtung Sonnenschein ET UV Solar Taupunkt Windchill Windben Empfang
22.04.2015 00:00 10,8 C 58 % 1024,4 hPa 0,0 l/m 0,7 km/h (0 Bft) SW 215 0 min 0,000 mm 0,0 UV-I 0 W/m 2,9 C 10,8 C 4,0 km/h (1 Bft) 0,00 %
22.04.2015 00:15 10,7 C 57 % 1024,5 hPa 0,0 l/m 0,0 km/h (0 Bft) SW 228 0 min 0,000 mm 0,0 UV-I 0 W/m 2,5 C 10,7 C 0,0 km/h (0 Bft) 0,00 %
22.04.2015 00:30 10,6 C 59 % 1024,5 hPa 0,0 l/m 0,0 km/h (0 Bft) S 175 0 min 0,000 mm 0,0 UV-I 0 W/m 2,9 C 10,6 C 0,0 km/h (0 Bft) 0,00 %
22.04.2015 00:45 10,2 C 59 % 1024,6 hPa 0,0 l/m 0,0 km/h (0 Bft) S-SW 210 0 min 0,000 mm 0,0 UV-I 0 W/m 2,6 C 10,2 C 0,0 km/h (0 Bft) 0,00 %
22.04.2015 01:00 10,1 C 60 % 1024,7 hPa 0,0 l/m 0,0 km/h (0 Bft) S 187 0 min 0,000 mm 0,0 UV-I 0 W/m 2,7 C 10,1 C 0,0 km/h (0 Bft) 0,00 %
22.04.2015 01:15 9,8 C 60 % 1024,5 hPa 0,0 l/m 0,0 km/h (0 Bft) S-SW 199 0 min 0,000 mm 0,0 UV-I 0 W/m 2,4 C 9,8 C 0,0 km/h (0 Bft) 0,00 %
22.04.2015 01:30 9,7 C 60 % 1024,5 hPa 0,0 l/m 0,0 km/h (0 Bft) W-SW 255 0 min 0,000 mm 0,0 UV-I 0 W/m 2,3 C 9,7 C 0,0 km/h (0 Bft) 0,00 %
22.04.2015 01:45 9,5 C 61 % 1024,6 hPa 0,0 l/m 0,0 km/h (0 Bft) S 173 0 min 0,000 mm 0,0 UV-I 0 W/m 2,4 C 9,5 C 0,0 km/h (0 Bft) 0,00 %
22.04.2015 02:00 9,4 C 61 % 1024,5 hPa 0,0 l/m 0,0 km/h (0 Bft) SW 218 0 min 0,000 mm 0,0 UV-I 0 W/m 2,3 C 9,4 C 0,0 km/h (0 Bft) 0,00 %
22.04.2015 02:15 9,4 C 62 % 1024,4 hPa 0,0 l/m 0,0 km/h (0 Bft) S 176 0 min 0,000 mm 0,0 UV-I 0 W/m 2,5 C 9,4 C 0,0 km/h (0 Bft) 0,00 %
22.04.2015 02:30 9,1 C 62 % 1024,2 hPa 0,0 l/m 0,0 km/h (0 Bft) S 178 0 min 0,000 mm 0,0 UV-I 0 W/m 2,2 C 9,1 C 0,0 km/h (0 Bft) 0,00 %
22.04.2015 02:45 8,9 C 62 % 1024,2 hPa 0,0 l/m 0,0 km/h (0 Bft) S 179 0 min 0,000 mm 0,0 UV-I 0 W/m 2,0 C 8,9 C 0,0 km/h (0 Bft) 0,00 %
22.04.2015 03:00 8,6 C 63 % 1024,1 hPa 0,0 l/m 0,0 km/h (0 Bft) SO 143 0 min 0,000 mm 0,0 UV-I 0 W/m 2,0 C 8,6 C 0,0 km/h (0 Bft) 0,00 %
22.04.2015 03:15 8,2 C 65 % 1024,1 hPa 0,0 l/m 0,4 km/h (0 Bft) W-SW 251 0 min 0,000 mm 0,0 UV-I 0 W/m 2,0 C 8,2 C 4,0 km/h (1 Bft) 0,00 %
22.04.2015 03:30 8,0 C 66 % 1024,2 hPa 0,0 l/m 0,0 km/h (0 Bft) S-SO 168 0 min 0,000 mm 0,0 UV-I 0 W/m 2,0 C 8,0 C 0,0 km/h (0 Bft) 0,00 %
22.04.2015 03:45 7,9 C 67 % 1024,2 hPa 0,0 l/m 0,0 km/h (0 Bft) S 182 0 min 0,000 mm 0,0 UV-I 0 W/m 2,2 C 7,9 C 0,0 km/h (0 Bft) 0,00 %
22.04.2015 04:00 7,8 C 67 % 1024,1 hPa 0,0 l/m 0,0 km/h (0 Bft) S 178 0 min 0,000 mm 0,0 UV-I 0 W/m 2,1 C 7,8 C 0,0 km/h (0 Bft) 0,00 %
22.04.2015 04:15 7,7 C 68 % 1024,0 hPa 0,0 l/m 0,0 km/h (0 Bft) W-SW 238 0 min 0,000 mm 0,0 UV-I 0 W/m 2,2 C 7,7 C 0,0 km/h (0 Bft) 0,00 %
22.04.2015 04:30 7,5 C 69 % 1023,8 hPa 0,0 l/m 0,0 km/h (0 Bft) S-SO 152 0 min 0,000 mm 0,0 UV-I 0 W/m 2,2 C 7,5 C 0,0 km/h (0 Bft) 0,00 %
22.04.2015 04:45 7,4 C 69 % 1023,9 hPa 0,0 l/m 0,0 km/h (0 Bft) SW 222 0 min 0,000 mm 0,0 UV-I 0 W/m 2,1 C 7,4 C 0,0 km/h (0 Bft) 0,00 %
22.04.2015 05:00 7,3 C 69 % 1023,8 hPa 0,0 l/m 0,0 km/h (0 Bft) SO 139 0 min 0,000 mm 0,0 UV-I 0 W/m 2,0 C 7,3 C 0,0 km/h (0 Bft) 0,00 %
22.04.2015 05:15 7,0 C 70 % 1023,8 hPa 0,0 l/m 0,0 km/h (0 Bft) S 181 0 min 0,000 mm 0,0 UV-I 0 W/m 1,9 C 7,0 C 0,0 km/h (0 Bft) 0,00 %
22.04.2015 05:30 6,5 C 70 % 1023,7 hPa 0,0 l/m 0,0 km/h (0 Bft) S 179 0 min 0,000 mm 0,0 UV-I 0 W/m 1,4 C 6,5 C 0,0 km/h (0 Bft) 0,00 %
22.04.2015 05:45 6,7 C 70 % 1023,8 hPa 0,0 l/m 0,0 km/h (0 Bft) SW 218 0 min 0,000 mm 0,0 UV-I 0 W/m 1,6 C 6,7 C 0,0 km/h (0 Bft) 0,00 %
22.04.2015 06:00 6,6 C 70 % 1023,6 hPa 0,0 l/m 0,0 km/h (0 Bft) SW 217 0 min 0,000 mm 0,0 UV-I 0 W/m 1,5 C 6,6 C 0,0 km/h (0 Bft) 0,00 %
22.04.2015 06:15 6,6 C 70 % 1023,8 hPa 0,0 l/m 0,0 km/h (0 Bft) S 176 15 min 0,000 mm 0,0 UV-I 19 W/m 1,5 C 6,6 C 0,0 km/h (0 Bft) 0,00 %
22.04.2015 06:30 6,9 C 68 % 1023,9 hPa 0,0 l/m 0,0 km/h (0 Bft) S 172 15 min 0,000 mm 0,0 UV-I 66 W/m 1,4 C 6,9 C 0,0 km/h (0 Bft) 0,00 %
22.04.2015 06:45 8,7 C 62 % 1023,8 hPa 0,0 l/m 0,0 km/h (0 Bft) S 183 15 min 0,000 mm 0,0 UV-I 128 W/m 1,8 C 8,7 C 0,0 km/h (0 Bft) 0,00 %
22.04.2015 07:00 10,0 C 59 % 1023,6 hPa 0,0 l/m 0,0 km/h (0 Bft) S 182 15 min 0,000 mm 1,0 UV-I 175 W/m 2,4 C 10,0 C 0,0 km/h (0 Bft) 0,00 %
22.04.2015 07:15 11,1 C 55 % 1023,4 hPa 0,0 l/m 0,0 km/h (0 Bft) S-SW 211 15 min 0,000 mm 1,0 UV-I 201 W/m 2,4 C 11,1 C 0,0 km/h (0 Bft) 0,00 %
22.04.2015 07:30 10,7 C 56 % 1023,5 hPa 0,0 l/m 0,0 km/h (0 Bft) SW 215 15 min 0,000 mm 1,0 UV-I 206 W/m 2,3 C 10,7 C 0,0 km/h (0 Bft) 0,00 %
22.04.2015 07:45 11,2 C 55 % 1023,3 hPa 0,0 l/m 1,4 km/h (1 Bft) S 176 15 min 0,000 mm 1,0 UV-I 209 W/m 2,5 C 11,2 C 4,0 km/h (1 Bft) 0,00 %
22.04.2015 08:00 11,9 C 53 % 1023,3 hPa 0,0 l/m 0,0 km/h (0 Bft) SW 228 15 min 0,000 mm 1,0 UV-I 227 W/m 2,6 C 11,9 C 0,0 km/h (0 Bft) 0,00 %
22.04.2015 08:15 12,3 C 51 % 1023,1 hPa 0,0 l/m 4,0 km/h (1 Bft) SW 218 15 min 0,000 mm 2,0 UV-I 239 W/m 2,5 C 12,3 C 7,9 km/h (2 Bft) 0,00 %
22.04.2015 08:30 12,6 C 52 % 1023,2 hPa 0,0 l/m 4,3 km/h (1 Bft) W-SW 252 15 min 0,000 mm 2,0 UV-I 246 W/m 3,0 C 12,6 C 7,9 km/h (2 Bft) 0,00 %
22.04.2015 08:45 13,1 C 51 % 1022,9 hPa 0,0 l/m 2,2 km/h (1 Bft) W-SW 250 15 min 0,000 mm 2,0 UV-I 268 W/m 3,2 C 13,1 C 4,0 km/h (1 Bft) 0,00 %
22.04.2015 09:00 14,7 C 44 % 1022,7 hPa 0,0 l/m 3,2 km/h (1 Bft) N-NO 13 15 min 0,000 mm 2,0 UV-I 294 W/m 2,6 C 14,7 C 4,0 km/h (1 Bft) 0,00 %
22.04.2015 09:15 14,5 C 46 % 1022,4 hPa 0,0 l/m 2,2 km/h (1 Bft) SW 232 15 min 0,000 mm 2,0 UV-I 315 W/m 3,0 C 14,5 C 4,0 km/h (1 Bft) 0,00 %
22.04.2015 09:30 15,1 C 43 % 1022,4 hPa 0,0 l/m 0,7 km/h (0 Bft) O 89 15 min 0,000 mm 3,0 UV-I 340 W/m 2,6 C 15,1 C 4,0 km/h (1 Bft) 0,00 %
22.04.2015 09:45 15,4 C 41 % 1022,3 hPa 0,0 l/m 0,0 km/h (0 Bft) S 188 0 min 0,000 mm 2,0 UV-I 270 W/m 2,2 C 15,4 C 0,0 km/h (0 Bft) 0,00 %
22.04.2015 10:00 15,8 C 40 % 1022,0 hPa 0,0 l/m 7,9 km/h (2 Bft) W-NW 283 15 min 0,000 mm 3,0 UV-I 397 W/m 2,2 C 15,0 C 11,9 km/h (2 Bft) 0,00 %
22.04.2015 10:15 16,5 C 40 % 1020,9 hPa 0,0 l/m 0,0 km/h (0 Bft) S-SW 194 15 min 0,000 mm 3,0 UV-I 432 W/m 2,9 C 16,5 C 0,0 km/h (0 Bft) 0,00 %
22.04.2015 10:30 17,2 C 34 % 1020,7 hPa 0,0 l/m 2,9 km/h (1 Bft) W-SW 256 15 min 0,000 mm 4,0 UV-I 453 W/m 1,2 C 17,2 C 4,0 km/h (1 Bft) 0,00 %
22.04.2015 10:45 18,0 C 35 % 1020,5 hPa 0,0 l/m 0,0 km/h (0 Bft) SW 224 15 min 0,000 mm 4,0 UV-I 492 W/m 2,3 C 18,0 C 0,0 km/h (0 Bft) 0,00 %
22.04.2015 11:00 17,8 C 33 % 1020,2 hPa 0,0 l/m 0,0 km/h (0 Bft) SO 133 15 min 0,000 mm 4,0 UV-I 529 W/m 1,3 C 17,8 C 0,0 km/h (0 Bft) 0,00 %
22.04.2015 11:15 18,3 C 32 % 1020,2 hPa 0,0 l/m 4,3 km/h (1 Bft) W-NW 291 15 min 0,000 mm 4,0 UV-I 568 W/m 1,3 C 18,3 C 7,9 km/h (2 Bft) 0,00 %
22.04.2015 11:30 18,2 C 31 % 1020,0 hPa 0,0 l/m 0,4 km/h (0 Bft) N 354 15 min 0,000 mm 5,0 UV-I 597 W/m 0,8 C 18,2 C 4,0 km/h (1 Bft) 0,00 %
22.04.2015 11:45 18,7 C 28 % 1019,6 hPa 0,0 l/m 5,8 km/h (2 Bft) W 279 15 min 0,000 mm 5,0 UV-I 637 W/m -0,2 C 18,7 C 7,9 km/h (2 Bft) 0,00 %
22.04.2015 12:00 19,7 C 29 % 1019,2 hPa 0,0 l/m 0,0 km/h (0 Bft) NO 48 15 min 0,000 mm 5,0 UV-I 676 W/m 1,2 C 19,7 C 0,0 km/h (0 Bft) 0,00 %
22.04.2015 12:15 19,5 C 31 % 1019,1 hPa 0,0 l/m 1,8 km/h (1 Bft) O 97 15 min 0,000 mm 5,0 UV-I 702 W/m 1,9 C 19,5 C 4,0 km/h (1 Bft) 0,00 %
22.04.2015 12:30 19,7 C 25 % 1018,6 hPa 0,0 l/m 4,0 km/h (1 Bft) W-NW 283 15 min 0,000 mm 5,0 UV-I 729 W/m -0,9 C 19,7 C 7,9 km/h (2 Bft) 0,00 %
22.04.2015 12:45 19,9 C 27 % 1018,3 hPa 0,0 l/m 0,0 km/h (0 Bft) SO 137 15 min 0,000 mm 5,0 UV-I 762 W/m 0,4 C 19,9 C 0,0 km/h (0 Bft) 0,00 %
22.04.2015 13:00 20,9 C 23 % 1018,0 hPa 0,0 l/m 3,2 km/h (1 Bft) W 262 15 min 0,000 mm 6,0 UV-I 789 W/m -1,0 C 20,9 C 4,0 km/h (1 Bft) 0,00 %
22.04.2015 13:15 20,2 C 24 % 1017,8 hPa 0,0 l/m 6,8 km/h (2 Bft) W-SW 255 15 min 0,000 mm 5,0 UV-I 807 W/m -1,0 C 20,0 C 11,9 km/h (2 Bft) 0,00 %
22.04.2015 13:30 20,6 C 23 % 1017,3 hPa 0,0 l/m 2,9 km/h (1 Bft) SW 215 15 min 0,000 mm 5,0 UV-I 782 W/m -1,3 C 20,6 C 4,0 km/h (1 Bft) 0,00 %
22.04.2015 13:45 21,2 C 21 % 1017,1 hPa 0,0 l/m 3,2 km/h (1 Bft) W-SW 239 15 min 0,000 mm 6,0 UV-I 908 W/m -2,0 C 21,2 C 4,0 km/h (1 Bft) 0,00 %
22.04.2015 14:00 21,5 C 20 % 1016,8 hPa 0,0 l/m 0,0 km/h (0 Bft) SW 229 15 min 0,000 mm 5,0 UV-I 617 W/m -2,4 C 21,5 C 0,0 km/h (0 Bft) 0,00 %
22.04.2015 14:15 21,0 C 22 % 1016,6 hPa 0,0 l/m 1,8 km/h (1 Bft) W-SW 255 15 min 0,000 mm 4,0 UV-I 836 W/m -1,5 C 21,0 C 4,0 km/h (1 Bft) 0,00 %
22.04.2015 14:30 22,0 C 24 % 1016,2 hPa 0,0 l/m 5,8 km/h (2 Bft) W-SW 256 15 min 0,000 mm 4,0 UV-I 607 W/m 0,5 C 22,0 C 11,9 km/h (2 Bft) 0,00 %
22.04.2015 14:45 21,4 C 26 % 1015,9 hPa 0,0 l/m 3,2 km/h (1 Bft) W 278 15 min 0,000 mm 3,0 UV-I 639 W/m 1,1 C 21,4 C 4,0 km/h (1 Bft) 0,00 %
22.04.2015 15:00 20,0 C 28 % 1015,9 hPa 0,0 l/m 0,4 km/h (0 Bft) W 266 15 min 0,000 mm 3,0 UV-I 419 W/m 0,9 C 20,0 C 4,0 km/h (1 Bft) 0,00 %
22.04.2015 15:15 19,7 C 30 % 1015,6 hPa 0,0 l/m 0,7 km/h (0 Bft) SW 221 0 min 0,000 mm 2,0 UV-I 377 W/m 1,6 C 19,7 C 4,0 km/h (1 Bft) 0,00 %
22.04.2015 15:30 19,4 C 29 % 1015,7 hPa 0,0 l/m 0,0 km/h (0 Bft) S 188 15 min 0,000 mm 2,0 UV-I 449 W/m 0,9 C 19,4 C 0,0 km/h (0 Bft) 0,00 %
22.04.2015 15:45 20,4 C 24 % 1015,3 hPa 0,0 l/m 0,0 km/h (0 Bft) W-NW 301 15 min 0,000 mm 3,0 UV-I 433 W/m -0,8 C 20,4 C 0,0 km/h (0 Bft) 0,00 %
22.04.2015 16:00 19,8 C 28 % 1015,1 hPa 0,0 l/m 0,0 km/h (0 Bft) W-SW 255 15 min 0,000 mm 2,0 UV-I 434 W/m 0,8 C 19,8 C 0,0 km/h (0 Bft) 0,00 %
22.04.2015 16:15 20,5 C 27 % 1014,8 hPa 0,0 l/m 0,0 km/h (0 Bft) S 178 15 min 0,000 mm 2,0 UV-I 580 W/m 0,9 C 20,5 C 0,0 km/h (0 Bft) 0,00 %
22.04.2015 16:30 20,6 C 26 % 1014,7 hPa 0,0 l/m 0,7 km/h (0 Bft) S 179 15 min 0,000 mm 2,0 UV-I 654 W/m 0,4 C 20,6 C 4,0 km/h (1 Bft) 0,00 %
22.04.2015 16:45 20,3 C 23 % 1014,6 hPa 0,0 l/m 0,0 km/h (0 Bft) SO 142 15 min 0,000 mm 2,0 UV-I 338 W/m -1,5 C 20,3 C 0,0 km/h (0 Bft) 0,00 %
22.04.2015 17:00 20,1 C 26 % 1014,3 hPa 0,0 l/m 4,3 km/h (1 Bft) NW 315 15 min 0,000 mm 2,0 UV-I 578 W/m 0,0 C 20,1 C 7,9 km/h (2 Bft) 0,00 %
22.04.2015 17:15 21,0 C 20 % 1014,0 hPa 0,0 l/m 0,0 km/h (0 Bft) S-SW 206 15 min 0,000 mm 2,0 UV-I 655 W/m -2,8 C 21,0 C 0,0 km/h (0 Bft) 0,00 %
22.04.2015 17:30 20,8 C 20 % 1013,9 hPa 0,0 l/m 0,0 km/h (0 Bft) S-SW 199 15 min 0,000 mm 1,0 UV-I 613 W/m -3,0 C 20,8 C 0,0 km/h (0 Bft) 0,00 %
22.04.2015 17:45 21,5 C 18 % 1013,8 hPa 0,0 l/m 0,0 km/h (0 Bft) S-SW 199 15 min 0,000 mm 1,0 UV-I 586 W/m -3,8 C 21,5 C 0,0 km/h (0 Bft) 0,00 %
22.04.2015 18:00 20,8 C 25 % 1013,8 hPa 0,0 l/m 1,4 km/h (1 Bft) O 89 15 min 0,000 mm 1,0 UV-I 500 W/m 0,1 C 20,8 C 4,0 km/h (1 Bft) 0,00 %
22.04.2015 18:15 19,8 C 24 % 1013,9 hPa 0,0 l/m 0,4 km/h (0 Bft) S-SO 154 15 min 0,000 mm 1,0 UV-I 433 W/m -1,3 C 19,8 C 4,0 km/h (1 Bft) 0,00 %
22.04.2015 18:30 19,2 C 32 % 1013,7 hPa 0,0 l/m 0,0 km/h (0 Bft) S-SO 159 15 min 0,000 mm 1,0 UV-I 387 W/m 2,1 C 19,2 C 0,0 km/h (0 Bft) 0,00 %
22.04.2015 18:45 19,0 C 32 % 1013,8 hPa 0,0 l/m 2,9 km/h (1 Bft) O 85 15 min 0,000 mm 1,0 UV-I 304 W/m 1,9 C 19,0 C 7,9 km/h (2 Bft) 0,00 %
22.04.2015 19:00 18,2 C 35 % 1014,1 hPa 0,0 l/m 3,2 km/h (1 Bft) O-SO 107 15 min 0,000 mm 1,0 UV-I 141 W/m 2,5 C 18,2 C 4,0 km/h (1 Bft) 0,00 %
22.04.2015 19:15 17,4 C 38 % 1014,2 hPa 0,0 l/m 0,4 km/h (0 Bft) S 172 0 min 0,000 mm 0,0 UV-I 45 W/m 2,9 C 17,4 C 4,0 km/h (1 Bft) 0,00 %
22.04.2015 19:30 16,6 C 39 % 1014,4 hPa 0,0 l/m 2,2 km/h (1 Bft) SO 124 0 min 0,000 mm 0,0 UV-I 22 W/m 2,6 C 16,6 C 4,0 km/h (1 Bft) 0,00 %
22.04.2015 19:45 16,2 C 41 % 1014,5 hPa 0,0 l/m 2,2 km/h (1 Bft) O-SO 107 0 min 0,000 mm 0,0 UV-I 8 W/m 2,9 C 16,2 C 4,0 km/h (1 Bft) 0,00 %
22.04.2015 20:00 15,9 C 41 % 1014,5 hPa 0,0 l/m 3,2 km/h (1 Bft) SO 124 0 min 0,000 mm 0,0 UV-I 0 W/m 2,7 C 15,9 C 4,0 km/h (1 Bft) 0,00 %
22.04.2015 20:15 15,7 C 40 % 1014,5 hPa 0,0 l/m 1,8 km/h (1 Bft) SO 140 0 min 0,000 mm 0,0 UV-I 0 W/m 2,1 C 15,7 C 4,0 km/h (1 Bft) 0,00 %
22.04.2015 20:30 15,5 C 41 % 1014,7 hPa 0,0 l/m 4,0 km/h (1 Bft) SO 145 0 min 0,000 mm 0,0 UV-I 0 W/m 2,3 C 15,5 C 4,0 km/h (1 Bft) 0,00 %
22.04.2015 20:45 15,4 C 42 % 1014,8 hPa 0,0 l/m 0,0 km/h (0 Bft) SO 125 0 min 0,000 mm 0,0 UV-I 0 W/m 2,6 C 15,4 C 0,0 km/h (0 Bft) 0,00 %
22.04.2015 21:00 15,3 C 42 % 1014,8 hPa 0,0 l/m 0,7 km/h (0 Bft) S 176 0 min 0,000 mm 0,0 UV-I 0 W/m 2,5 C 15,3 C 4,0 km/h (1 Bft) 0,00 %
22.04.2015 21:15 15,1 C 42 % 1014,9 hPa 0,0 l/m 2,2 km/h (1 Bft) SO 131 0 min 0,000 mm 0,0 UV-I 0 W/m 2,3 C 15,1 C 4,0 km/h (1 Bft) 0,00 %
22.04.2015 21:30 14,7 C 45 % 1014,8 hPa 0,0 l/m 6,8 km/h (2 Bft) O 94 0 min 0,000 mm 0,0 UV-I 0 W/m 2,9 C 14,5 C 7,9 km/h (2 Bft) 0,00 %
22.04.2015 21:45 14,5 C 41 % 1015,1 hPa 0,0 l/m 11,5 km/h (2 Bft) O-SO 111 0 min 0,000 mm 0,0 UV-I 0 W/m 1,4 C 11,9 C 15,8 km/h (3 Bft) 0,00 %
22.04.2015 22:00 14,2 C 41 % 1015,5 hPa 0,0 l/m 0,0 km/h (0 Bft) SO 143 0 min 0,000 mm 0,0 UV-I 0 W/m 1,1 C 14,2 C 0,0 km/h (0 Bft) 0,00 %
22.04.2015 22:15 13,7 C 42 % 1015,7 hPa 0,0 l/m 4,0 km/h (1 Bft) SO 142 0 min 0,000 mm 0,0 UV-I 0 W/m 1,0 C 13,7 C 4,0 km/h (1 Bft) 0,00 %
22.04.2015 22:30 13,2 C 52 % 1016,5 hPa 0,0 l/m 0,0 km/h (0 Bft) S 179 0 min 0,000 mm 0,0 UV-I 0 W/m 3,6 C 13,2 C 0,0 km/h (0 Bft) 0,00 %
22.04.2015 22:45 12,6 C 45 % 1016,9 hPa 0,0 l/m 0,0 km/h (0 Bft) SW 216 0 min 0,000 mm 0,0 UV-I 0 W/m 1,0 C 12,6 C 0,0 km/h (0 Bft) 0,00 %
22.04.2015 23:00 13,9 C 48 % 1016,9 hPa 0,0 l/m 9,4 km/h (2 Bft) W-SW 256 0 min 0,000 mm 0,0 UV-I 0 W/m 3,1 C 12,2 C 11,9 km/h (2 Bft) 0,00 %
22.04.2015 23:15 12,9 C 53 % 1017,7 hPa 0,0 l/m 19,4 km/h (3 Bft) NW 309 0 min 0,000 mm 0,0 UV-I 0 W/m 3,6 C 7,2 C 24,1 km/h (4 Bft) 0,00 %
22.04.2015 23:30 11,4 C 60 % 1017,9 hPa 0,0 l/m 0,4 km/h (0 Bft) N-NO 26 0 min 0,000 mm 0,0 UV-I 0 W/m 3,9 C 11,4 C 4,0 km/h (1 Bft) 0,00 %
22.04.2015 23:45 10,3 C 67 % 1018,7 hPa 0,0 l/m 0,7 km/h (0 Bft) SW 229 0 min 0,000 mm 0,0 UV-I 0 W/m 4,4 C 10,3 C 4,0 km/h (1 Bft) 0,00 %
_ Min-Zeit 05:30 17:45 18:30 - 00:15 - - - - - - 17:45 05:30 00:15 00:00
Minimum _ 6,5 C 18 % 1013,7 hPa - 0,0 km/h (0 Bft) - - - - - - -3,8 C 6,5 C 0,0 km/h (0 Bft) 0,00 %
_ Max-Zeit 14:30 05:15 01:00 00:00 23:15 - - 06:15 00:00 13:00 13:45 23:45 14:30 23:15 00:00
Maximum _ 22,0 C 70 % 1024,7 hPa 0,0 l/m 19,4 km/h
NW (3 Bft)
- - 15 min 0,000 mm 6,0 UV-I 908 W/m 4,4 C 22,0 C 24,1 km/h
NW (4 Bft)
0,00 %
Durchschnitt _ 14,6 C 45 % 1019,4 hPa #0,0 l/m 1,6 km/h (1 Bft) W-SW - #12:30 h #0,000 mm 2,8 UV-I 439 W/m 1,5 C 14,4 C 2,9 km/h (1 Bft) 0,00 %